< < Back
Terminal Aerodrome Forecast


Current Version              Previous Versions:   1  2  3  4  5  6  7  8  9  

Terminal Aerodrome Forecast

992
FTUS42 KTAE 030524
TAFTLH
TAF
KTLH 030524Z 0306/0406 00000KT P6SM SCT250
     FM031300 31005KT P6SM SCT250
     FM031800 28008KT P6SM SCT060=



Latest METAR

479
SAUS80 KWBC 040500 RRB
MTRTLH
METAR KTLH 040453Z AUTO 00000KT 10SM CLR 24/22 A2995 RMK AO2 SLP141
T02390222 403500239 $


USA.gov is the U.S. government's official web portal to all federal, state and local government web resources and services.